首页
METAR-TAF:

METAR-TAF

机场 :

仁川國際機場

仁川国际机场, 大韩民国

纬度: 37-28N, 经度: 126-27E, 海拔: 7米

当前天气观测

该预报发布于21分钟前的20:30 UTC
风速6节,风向南转南东
温度 25°C
湿度 74%
气压 1008 hPa
能见度10公里或以上
1500米以下无云,无积雨云

METAR: RKSI 192030Z 15006KT CAVOK 25/20 Q1008 NOSIG

时间: 05:51 (20:51 UTC)

预报

该预报发布于3小时和51分钟前的17:00 UTC
预报有效从19日的 18点(UTC)到 20日的 24点(UTC)
风速6节,风向东转东北
能见度10公里或以上
少量云层高于3000英尺
多云层高于18000英尺
成为
从 19日的 22点(UTC)到 19日的 23点(UTC)
风速10节,风向
成为
从 20日的 11点(UTC)到 20日的 12点(UTC)
风速15节,风向,有时为25节阵风

TAF: RKSI 191700Z 1918/2024 06006KT 9999 FEW030 BKN180 TN25/1921Z TX33/2006Z TN26/2021Z BECMG 1922/1923 17010KT BECMG 2011/2012 19015G25KT

超过4000个机场的气象观测和天气预报(METAR&TAF报告)。

可查询的气象台以黄色和红色小点在地图上表示。

将鼠标移到小点上方,可查看气象台名称。

然后点击查看天气观测和预报。

如需切换地图:点击带黑十字的绿色按钮放大地图;点击带横线的绿色按钮缩小地图;或者点击绿色箭头查看邻近地区的地图。


METAR-TAF: